Time;durP1;ratioP1;P1;durP2;ratioP2;P2;SDS_P1;SDS_P2;PMS_P1;PMS_P2;Temp;Humidity;BMP_temperature;BMP_pressure;BME280_temperature;BME280_humidity;BME280_pressure;Samples;Min_cycle;Max_cycle;Signal;HPM_P1;HPM_P2
2024/01/18 00:00:53;;;;;;;3.15;2.85;;;;;;;;;;5057411;28;20374;-82
2024/01/18 00:03:19;;;;;;;2.40;2.20;;;;;;;;;;5039704;28;20443;-81
2024/01/18 00:05:45;;;;;;;2.33;2.13;;;;;;;;;;5057438;28;20847;-82
2024/01/18 00:08:11;;;;;;;2.45;2.25;;;;;;;;;;5057193;28;20417;-83
2024/01/18 00:10:37;;;;;;;2.30;2.10;;;;;;;;;;5038748;28;20476;-81
2024/01/18 00:13:03;;;;;;;2.20;2.10;;;;;;;;;;5056665;28;20442;-81
2024/01/18 00:15:29;;;;;;;2.80;2.60;;;;;;;;;;5057254;28;20750;-82
2024/01/18 00:17:55;;;;;;;2.45;2.25;;;;;;;;;;5056840;28;20388;-81
2024/01/18 00:20:24;;;;;;;2.22;2.08;;;;;;;;;;5057305;28;20387;-81
2024/01/18 00:22:50;;;;;;;2.28;2.08;;;;;;;;;;5056714;28;20473;-81
2024/01/18 00:25:16;;;;;;;2.15;1.92;;;;;;;;;;5057761;28;20420;-82
2024/01/18 00:27:42;;;;;;;2.03;1.92;;;;;;;;;;5074680;28;20836;-82
2024/01/18 00:30:08;;;;;;;2.10;1.90;;;;;;;;;;5079494;28;20466;-82
2024/01/18 00:32:34;;;;;;;1.77;1.67;;;;;;;;;;5079753;28;20382;-81
2024/01/18 00:35:00;;;;;;;2.40;2.00;;;;;;;;;;5078759;28;20447;-82
2024/01/18 00:37:26;;;;;;;2.28;2.08;;;;;;;;;;5077364;28;20407;-82
2024/01/18 00:39:52;;;;;;;2.10;2.00;;;;;;;;;;5078110;28;20406;-81
2024/01/18 00:42:18;;;;;;;2.88;2.08;;;;;;;;;;5077652;28;20376;-83
2024/01/18 00:44:44;;;;;;;1.70;1.60;;;;;;;;;;5060805;28;20386;-81
2024/01/18 00:47:10;;;;;;;1.50;1.40;;;;;;;;;;5077895;28;20411;-81
2024/01/18 00:49:35;;;;;;;1.58;1.33;;;;;;;;;;5077862;28;20387;-82
2024/01/18 00:52:02;;;;;;;1.45;1.35;;;;;;;;;;5078129;28;20749;-81
2024/01/18 00:54:28;;;;;;;1.48;1.38;;;;;;;;;;5078521;28;20409;-82
2024/01/18 00:56:54;;;;;;;1.40;1.30;;;;;;;;;;5078323;28;20418;-82
2024/01/18 00:59:20;;;;;;;1.50;1.40;;;;;;;;;;5077951;28;20453;-81
2024/01/18 01:01:46;;;;;;;1.48;1.38;;;;;;;;;;5077660;28;20387;-81
2024/01/18 01:04:12;;;;;;;1.35;1.25;;;;;;;;;;5077306;28;20375;-82
2024/01/18 01:06:38;;;;;;;1.23;1.13;;;;;;;;;;5076754;28;20465;-82
2024/01/18 01:09:06;;;;;;;1.20;1.10;;;;;;;;;;5077165;28;20396;-82
2024/01/18 01:11:32;;;;;;;1.60;0.95;;;;;;;;;;5076679;28;20988;-82
2024/01/18 01:13:58;;;;;;;0.80;0.80;;;;;;;;;;5077283;28;20467;-82
2024/01/18 01:16:24;;;;;;;0.80;0.80;;;;;;;;;;5077024;28;20824;-82
2024/01/18 01:18:50;;;;;;;0.63;0.60;;;;;;;;;;5076451;28;20469;-82
2024/01/18 01:21:16;;;;;;;0.60;0.60;;;;;;;;;;5076110;28;20846;-82
2024/01/18 01:23:48;;;;;;;0.60;0.60;;;;;;;;;;5077082;28;20375;-81
2024/01/18 01:26:15;;;;;;;0.80;0.57;;;;;;;;;;5077164;28;20367;-82
2024/01/18 01:28:41;;;;;;;0.73;0.63;;;;;;;;;;5076540;28;20383;-81
2024/01/18 01:31:07;;;;;;;0.73;0.55;;;;;;;;;;5076390;28;20384;-81
2024/01/18 01:33:33;;;;;;;0.50;0.50;;;;;;;;;;5077052;28;20390;-82
2024/01/18 01:35:59;;;;;;;0.63;0.60;;;;;;;;;;5076142;28;20436;-82
2024/01/18 01:38:25;;;;;;;0.40;0.40;;;;;;;;;;5076342;28;20411;-81
2024/01/18 01:40:51;;;;;;;0.50;0.50;;;;;;;;;;5075825;28;20384;-82
2024/01/18 01:43:17;;;;;;;0.68;0.60;;;;;;;;;;5060465;28;20433;-84
2024/01/18 01:45:43;;;;;;;0.60;0.60;;;;;;;;;;5043907;28;20389;-82
2024/01/18 01:48:09;;;;;;;0.50;0.50;;;;;;;;;;5056314;28;20794;-82
2024/01/18 01:50:36;;;;;;;0.60;0.60;;;;;;;;;;5056789;28;20406;-83
2024/01/18 01:53:02;;;;;;;1.10;0.50;;;;;;;;;;5056061;28;20743;-82
2024/01/18 01:55:28;;;;;;;0.60;0.50;;;;;;;;;;5055954;28;20391;-82
2024/01/18 01:57:54;;;;;;;0.40;0.40;;;;;;;;;;5055218;28;20397;-82
2024/01/18 02:00:21;;;;;;;1.00;0.50;;;;;;;;;;5055618;28;20851;-81
2024/01/18 02:02:48;;;;;;;0.52;0.50;;;;;;;;;;5055394;28;20443;-82
2024/01/18 02:05:14;;;;;;;0.40;0.40;;;;;;;;;;5055978;28;20393;-81
2024/01/18 02:07:40;;;;;;;0.40;0.30;;;;;;;;;;5056932;28;20378;-81
2024/01/18 02:10:07;;;;;;;0.50;0.30;;;;;;;;;;5055390;28;20388;-81
2024/01/18 02:12:33;;;;;;;0.50;0.30;;;;;;;;;;5056860;28;20373;-82
2024/01/18 02:14:59;;;;;;;0.30;0.30;;;;;;;;;;5055619;28;20408;-82
2024/01/18 02:17:25;;;;;;;0.30;0.30;;;;;;;;;;5055045;28;20381;-82
2024/01/18 02:19:51;;;;;;;0.50;0.40;;;;;;;;;;5055390;28;20801;-82
2024/01/18 02:22:18;;;;;;;0.50;0.30;;;;;;;;;;5056263;28;20435;-82
2024/01/18 02:24:51;;;;;;;0.63;0.40;;;;;;;;;;5056270;28;20946;-82
2024/01/18 02:27:17;;;;;;;0.32;0.32;;;;;;;;;;5056516;28;20435;-81
2024/01/18 02:29:44;;;;;;;1.00;0.30;;;;;;;;;;5065746;28;20384;-81
2024/01/18 02:32:10;;;;;;;0.30;0.20;;;;;;;;;;5076987;28;20767;-81
2024/01/18 02:34:39;;;;;;;0.20;0.20;;;;;;;;;;5061369;28;20392;-81
2024/01/18 02:37:05;;;;;;;0.20;0.20;;;;;;;;;;5079476;28;20715;-81
2024/01/18 02:39:31;;;;;;;0.30;0.20;;;;;;;;;;5078226;28;20765;-81
2024/01/18 02:41:57;;;;;;;0.20;0.20;;;;;;;;;;5060283;28;20402;-81
2024/01/18 02:44:25;;;;;;;0.52;0.30;;;;;;;;;;5078501;28;20391;-83
2024/01/18 02:46:51;;;;;;;0.28;0.28;;;;;;;;;;5079760;28;20396;-83
2024/01/18 02:49:17;;;;;;;0.85;0.20;;;;;;;;;;5079355;28;20379;-83
2024/01/18 02:51:44;;;;;;;0.33;0.20;;;;;;;;;;5079897;28;20407;-83
2024/01/18 02:54:10;;;;;;;0.22;0.20;;;;;;;;;;5080376;28;20388;-83
2024/01/18 02:56:37;;;;;;;0.27;0.20;;;;;;;;;;5080876;28;20454;-83
2024/01/18 02:59:03;;;;;;;0.10;0.10;;;;;;;;;;5080627;28;20395;-83
2024/01/18 03:01:30;;;;;;;0.20;0.20;;;;;;;;;;5081073;28;20501;-84
2024/01/18 03:03:56;;;;;;;1.00;0.20;;;;;;;;;;5080909;28;20372;-83
2024/01/18 03:06:22;;;;;;;0.70;0.20;;;;;;;;;;5081769;28;20411;-82
2024/01/18 03:08:48;;;;;;;0.20;0.20;;;;;;;;;;5080318;28;20395;-81
2024/01/18 03:11:15;;;;;;;0.35;0.13;;;;;;;;;;5080131;28;20434;-83
2024/01/18 03:13:41;;;;;;;0.40;0.30;;;;;;;;;;5084201;28;20418;-81
2024/01/18 03:16:11;;;;;;;0.25;0.20;;;;;;;;;;5084098;28;20383;-81
2024/01/18 03:18:37;;;;;;;0.40;0.20;;;;;;;;;;5083722;28;20453;-82
2024/01/18 03:21:07;;;;;;;0.30;0.28;;;;;;;;;;5083874;28;20724;-82
2024/01/18 03:23:33;;;;;;;0.20;0.20;;;;;;;;;;5083177;28;20399;-81
2024/01/18 03:25:59;;;;;;;0.20;0.20;;;;;;;;;;5083219;28;20376;-82
2024/01/18 03:28:25;;;;;;;0.30;0.20;;;;;;;;;;5083080;28;21173;-81
2024/01/18 03:30:51;;;;;;;0.30;0.20;;;;;;;;;;5083227;28;20388;-82
2024/01/18 03:33:17;;;;;;;0.17;0.10;;;;;;;;;;5082605;28;20411;-82
2024/01/18 03:35:43;;;;;;;0.60;0.20;;;;;;;;;;5082271;28;20857;-82
2024/01/18 03:38:09;;;;;;;0.20;0.20;;;;;;;;;;5079163;28;21277;-81
2024/01/18 03:40:36;;;;;;;0.68;0.30;;;;;;;;;;5079672;28;20400;-81
2024/01/18 03:43:02;;;;;;;0.60;0.40;;;;;;;;;;5077927;28;20459;-82
2024/01/18 03:45:27;;;;;;;0.60;0.30;;;;;;;;;;5077900;28;20857;-82
2024/01/18 03:47:53;;;;;;;0.70;0.40;;;;;;;;;;5079087;28;20382;-83
2024/01/18 03:50:19;;;;;;;0.30;0.30;;;;;;;;;;5081187;28;20762;-81
2024/01/18 03:52:45;;;;;;;0.37;0.30;;;;;;;;;;5063018;28;20472;-81
2024/01/18 03:55:12;;;;;;;0.57;0.50;;;;;;;;;;5057632;28;20413;-82
2024/01/18 03:57:39;;;;;;;1.00;0.57;;;;;;;;;;5058939;28;20431;-81
2024/01/18 04:00:05;;;;;;;0.90;0.60;;;;;;;;;;5058728;28;20437;-83
2024/01/18 04:02:31;;;;;;;1.20;0.60;;;;;;;;;;5058099;28;20381;-81
2024/01/18 04:04:57;;;;;;;0.60;0.50;;;;;;;;;;5057895;28;20392;-82
2024/01/18 04:07:23;;;;;;;1.70;0.50;;;;;;;;;;5057934;28;20385;-83
2024/01/18 04:09:49;;;;;;;0.53;0.40;;;;;;;;;;5056602;28;20433;-82
2024/01/18 04:12:16;;;;;;;0.43;0.32;;;;;;;;;;5057564;28;20930;-83
2024/01/18 04:14:43;;;;;;;0.60;0.40;;;;;;;;;;5057972;28;20386;-82
2024/01/18 04:17:12;;;;;;;1.27;0.63;;;;;;;;;;5057978;28;20742;-82
2024/01/18 04:19:41;;;;;;;0.90;0.63;;;;;;;;;;5057839;28;20755;-81
2024/01/18 04:22:08;;;;;;;1.00;0.70;;;;;;;;;;5057850;28;20415;-82
2024/01/18 04:24:34;;;;;;;0.82;0.40;;;;;;;;;;5057240;28;20738;-82
2024/01/18 04:27:00;;;;;;;0.40;0.35;;;;;;;;;;5057337;28;20384;-82
2024/01/18 04:29:29;;;;;;;0.35;0.35;;;;;;;;;;5059018;28;20863;-82
2024/01/18 04:31:55;;;;;;;0.73;0.50;;;;;;;;;;5059693;28;20401;-82
2024/01/18 04:34:21;;;;;;;0.70;0.57;;;;;;;;;;5060279;28;20435;-81
2024/01/18 04:36:47;;;;;;;0.70;0.60;;;;;;;;;;5058473;28;20390;-82
2024/01/18 04:39:14;;;;;;;1.58;1.08;;;;;;;;;;5059256;28;20401;-81
2024/01/18 04:41:40;;;;;;;1.33;1.00;;;;;;;;;;5060196;28;20388;-81
2024/01/18 04:44:06;;;;;;;1.00;0.60;;;;;;;;;;5059624;28;20434;-81
2024/01/18 04:46:32;;;;;;;0.30;0.30;;;;;;;;;;5075995;28;20386;-83
2024/01/18 04:48:58;;;;;;;0.30;0.20;;;;;;;;;;5060022;28;20377;-82
2024/01/18 04:51:24;;;;;;;0.40;0.40;;;;;;;;;;5059787;28;20444;-81
2024/01/18 04:53:50;;;;;;;0.40;0.30;;;;;;;;;;5060482;28;20390;-81
2024/01/18 04:56:16;;;;;;;0.63;0.38;;;;;;;;;;5057989;28;20427;-81
2024/01/18 04:58:42;;;;;;;0.70;0.53;;;;;;;;;;5058587;28;20917;-81
2024/01/18 05:01:08;;;;;;;0.30;0.30;;;;;;;;;;5058184;28;20392;-81
2024/01/18 05:03:34;;;;;;;0.90;0.50;;;;;;;;;;5058079;28;20374;-82
2024/01/18 05:06:00;;;;;;;0.38;0.32;;;;;;;;;;5058579;28;20730;-82
2024/01/18 05:08:26;;;;;;;1.30;0.43;;;;;;;;;;5059906;28;20385;-81
2024/01/18 05:10:53;;;;;;;0.47;0.32;;;;;;;;;;5058718;28;20400;-81
2024/01/18 05:13:20;;;;;;;0.50;0.50;;;;;;;;;;5059068;28;20385;-82
2024/01/18 05:15:46;;;;;;;0.70;0.57;;;;;;;;;;5059912;28;20436;-82
2024/01/18 05:18:13;;;;;;;0.90;0.50;;;;;;;;;;5058131;28;20409;-81
2024/01/18 05:20:39;;;;;;;1.25;0.60;;;;;;;;;;5057874;28;20377;-81
2024/01/18 05:23:06;;;;;;;1.25;0.70;;;;;;;;;;5057716;28;20858;-82
2024/01/18 05:25:32;;;;;;;1.10;0.70;;;;;;;;;;5056830;28;20401;-82
2024/01/18 05:27:59;;;;;;;1.20;0.88;;;;;;;;;;5056010;28;20693;-81
2024/01/18 05:30:25;;;;;;;0.50;0.40;;;;;;;;;;5055977;28;20785;-81
2024/01/18 05:32:51;;;;;;;0.50;0.40;;;;;;;;;;5058418;28;20441;-82
2024/01/18 05:35:17;;;;;;;0.60;0.50;;;;;;;;;;5059170;28;20384;-82
2024/01/18 05:37:43;;;;;;;1.20;0.40;;;;;;;;;;5058246;28;20903;-82
2024/01/18 05:40:09;;;;;;;0.50;0.40;;;;;;;;;;5060171;28;20416;-82
2024/01/18 05:42:35;;;;;;;1.20;0.70;;;;;;;;;;5060763;28;20476;-82
2024/01/18 05:45:01;;;;;;;1.85;0.40;;;;;;;;;;5059389;28;20436;-81
2024/01/18 05:47:27;;;;;;;0.55;0.40;;;;;;;;;;5058758;28;20381;-81
2024/01/18 05:49:53;;;;;;;1.05;0.50;;;;;;;;;;5059103;28;20470;-82
2024/01/18 05:52:19;;;;;;;0.50;0.40;;;;;;;;;;5073947;28;20389;-81
2024/01/18 05:54:45;;;;;;;0.40;0.40;;;;;;;;;;5058421;28;20847;-81
2024/01/18 05:57:11;;;;;;;0.65;0.40;;;;;;;;;;5056572;28;20427;-82
2024/01/18 05:59:37;;;;;;;0.50;0.40;;;;;;;;;;5055722;28;20397;-81
2024/01/18 06:02:03;;;;;;;0.70;0.50;;;;;;;;;;5060073;28;20373;-83
2024/01/18 06:04:30;;;;;;;0.50;0.43;;;;;;;;;;5060624;28;20401;-82
2024/01/18 06:06:56;;;;;;;0.65;0.45;;;;;;;;;;5060394;28;20464;-82
2024/01/18 06:09:22;;;;;;;0.90;0.38;;;;;;;;;;5062223;28;20387;-82
2024/01/18 06:11:49;;;;;;;0.53;0.40;;;;;;;;;;5061906;28;20862;-81
2024/01/18 06:14:15;;;;;;;0.50;0.40;;;;;;;;;;5059603;28;20844;-82
2024/01/18 06:16:41;;;;;;;0.70;0.70;;;;;;;;;;5062577;28;20439;-82
2024/01/18 06:19:07;;;;;;;0.60;0.40;;;;;;;;;;5062370;28;20806;-82
2024/01/18 06:21:33;;;;;;;0.50;0.40;;;;;;;;;;5061158;28;20385;-81
2024/01/18 06:23:59;;;;;;;0.63;0.30;;;;;;;;;;5062569;28;20393;-83
2024/01/18 06:26:26;;;;;;;0.40;0.40;;;;;;;;;;5081295;28;20841;-83
2024/01/18 06:28:52;;;;;;;0.40;0.30;;;;;;;;;;5082952;28;20468;-82
2024/01/18 06:31:19;;;;;;;0.70;0.60;;;;;;;;;;5083484;28;20549;-81
2024/01/18 06:33:45;;;;;;;0.40;0.40;;;;;;;;;;5083293;28;20382;-82
2024/01/18 06:36:12;;;;;;;0.38;0.30;;;;;;;;;;5084449;28;20447;-82
2024/01/18 06:38:38;;;;;;;0.47;0.40;;;;;;;;;;5085572;28;20403;-81
2024/01/18 06:41:04;;;;;;;0.60;0.32;;;;;;;;;;5085176;28;20750;-82
2024/01/18 06:43:30;;;;;;;0.40;0.40;;;;;;;;;;5086335;28;20379;-80
2024/01/18 06:45:56;;;;;;;0.25;0.25;;;;;;;;;;5085410;28;20380;-82
2024/01/18 06:48:23;;;;;;;0.50;0.40;;;;;;;;;;5085888;28;20371;-83
2024/01/18 06:50:49;;;;;;;0.73;0.30;;;;;;;;;;5084778;28;20548;-81
2024/01/18 06:53:15;;;;;;;0.40;0.30;;;;;;;;;;5085285;28;20407;-83
2024/01/18 06:55:41;;;;;;;0.77;0.35;;;;;;;;;;5085058;28;20387;-81
2024/01/18 06:58:07;;;;;;;0.70;0.40;;;;;;;;;;5085518;28;20467;-81
2024/01/18 07:00:33;;;;;;;0.20;0.20;;;;;;;;;;5085128;28;20389;-81
2024/01/18 07:02:59;;;;;;;0.40;0.30;;;;;;;;;;5085212;28;20379;-81
2024/01/18 07:05:25;;;;;;;0.67;0.23;;;;;;;;;;5085175;28;20406;-81
2024/01/18 07:07:51;;;;;;;0.40;0.30;;;;;;;;;;5085018;28;20796;-82
2024/01/18 07:10:17;;;;;;;0.30;0.30;;;;;;;;;;5086469;28;20388;-82
2024/01/18 07:12:44;;;;;;;0.60;0.30;;;;;;;;;;5086760;28;20388;-82
2024/01/18 07:15:10;;;;;;;0.45;0.20;;;;;;;;;;5085099;28;20383;-82
2024/01/18 07:17:36;;;;;;;0.40;0.32;;;;;;;;;;5084133;28;20733;-82
2024/01/18 07:20:03;;;;;;;0.63;0.30;;;;;;;;;;5084083;28;20419;-81
2024/01/18 07:22:29;;;;;;;0.30;0.30;;;;;;;;;;5085244;28;21175;-81
2024/01/18 07:24:55;;;;;;;0.70;0.50;;;;;;;;;;5086427;28;20771;-81
2024/01/18 07:27:21;;;;;;;0.55;0.32;;;;;;;;;;5084349;28;20864;-81
2024/01/18 07:29:50;;;;;;;0.90;0.40;;;;;;;;;;5084398;28;20384;-80
2024/01/18 07:32:16;;;;;;;0.80;0.50;;;;;;;;;;5067758;28;20410;-82
2024/01/18 07:34:42;;;;;;;0.55;0.47;;;;;;;;;;5085049;28;20384;-83
2024/01/18 07:37:12;;;;;;;0.88;0.60;;;;;;;;;;5083824;28;20430;-82
2024/01/18 07:39:38;;;;;;;1.20;0.60;;;;;;;;;;5083701;28;20791;-81
2024/01/18 07:42:04;;;;;;;0.80;0.40;;;;;;;;;;5085058;28;20388;-81
2024/01/18 07:44:30;;;;;;;1.08;0.47;;;;;;;;;;5085120;28;20402;-82
2024/01/18 07:46:56;;;;;;;1.40;0.50;;;;;;;;;;5084403;28;20433;-81
2024/01/18 07:49:22;;;;;;;1.30;0.60;;;;;;;;;;5084149;28;20386;-81
2024/01/18 07:51:48;;;;;;;0.98;0.60;;;;;;;;;;5085223;28;20403;-82
2024/01/18 07:54:14;;;;;;;0.77;0.60;;;;;;;;;;5080683;28;20416;-81
2024/01/18 07:56:41;;;;;;;1.05;0.50;;;;;;;;;;5062768;28;20484;-82
2024/01/18 07:59:07;;;;;;;0.95;0.75;;;;;;;;;;5063113;28;20405;-81
2024/01/18 08:01:33;;;;;;;0.43;0.40;;;;;;;;;;5061992;28;20374;-81
2024/01/18 08:03:59;;;;;;;0.30;0.28;;;;;;;;;;5061154;28;20412;-81
2024/01/18 08:06:26;;;;;;;0.50;0.30;;;;;;;;;;5062041;28;20782;-81
2024/01/18 08:08:52;;;;;;;0.70;0.40;;;;;;;;;;5061830;28;20812;-81
2024/01/18 08:11:18;;;;;;;0.32;0.32;;;;;;;;;;5062337;28;20385;-82
2024/01/18 08:13:44;;;;;;;0.40;0.40;;;;;;;;;;5064862;28;20686;-81
2024/01/18 08:16:10;;;;;;;0.47;0.47;;;;;;;;;;5062176;28;20392;-81
2024/01/18 08:18:36;;;;;;;0.57;0.47;;;;;;;;;;5062152;28;20421;-81
2024/01/18 08:21:03;;;;;;;0.40;0.40;;;;;;;;;;5058313;28;20404;-82
2024/01/18 08:23:29;;;;;;;1.02;0.55;;;;;;;;;;5042781;28;20390;-82
2024/01/18 08:25:55;;;;;;;0.50;0.50;;;;;;;;;;5061796;28;20378;-81
2024/01/18 08:28:21;;;;;;;0.63;0.45;;;;;;;;;;5080788;28;20379;-82
2024/01/18 08:30:47;;;;;;;0.50;0.50;;;;;;;;;;5063315;28;20405;-81
2024/01/18 08:33:14;;;;;;;0.38;0.38;;;;;;;;;;5082035;28;20555;-83
2024/01/18 08:35:40;;;;;;;0.45;0.35;;;;;;;;;;5064110;28;20746;-82
2024/01/18 08:38:06;;;;;;;0.35;0.30;;;;;;;;;;5081387;28;20384;-81
2024/01/18 08:40:33;;;;;;;0.30;0.30;;;;;;;;;;5080733;28;20403;-82
2024/01/18 08:42:59;;;;;;;0.33;0.30;;;;;;;;;;5079838;28;20411;-82
2024/01/18 08:45:26;;;;;;;0.90;0.30;;;;;;;;;;5082281;28;20371;-82
2024/01/18 08:47:52;;;;;;;0.35;0.30;;;;;;;;;;5063079;28;20387;-83
2024/01/18 08:50:20;;;;;;;0.50;0.30;;;;;;;;;;5081884;28;20404;-82
2024/01/18 08:52:46;;;;;;;0.40;0.20;;;;;;;;;;5082825;28;20437;-81
2024/01/18 08:55:13;;;;;;;0.25;0.25;;;;;;;;;;5082212;28;20757;-82
2024/01/18 08:57:39;;;;;;;0.20;0.20;;;;;;;;;;5081758;28;20376;-83
2024/01/18 09:00:06;;;;;;;1.70;0.30;;;;;;;;;;5080233;28;20486;-81
2024/01/18 09:02:32;;;;;;;0.30;0.30;;;;;;;;;;5076825;28;20384;-81
2024/01/18 09:04:58;;;;;;;0.43;0.43;;;;;;;;;;5077763;28;20392;-82
2024/01/18 09:07:25;;;;;;;1.00;0.50;;;;;;;;;;5078362;28;20406;-82
2024/01/18 09:09:51;;;;;;;0.50;0.40;;;;;;;;;;5076685;28;20849;-82
2024/01/18 09:12:17;;;;;;;1.63;0.35;;;;;;;;;;5077525;28;20380;-82
2024/01/18 09:14:45;;;;;;;1.15;0.60;;;;;;;;;;5075770;28;20394;-81
2024/01/18 09:17:11;;;;;;;0.77;0.30;;;;;;;;;;5077371;28;20391;-81
2024/01/18 09:19:37;;;;;;;0.30;0.25;;;;;;;;;;5074728;28;20450;-82
2024/01/18 09:22:03;;;;;;;0.30;0.30;;;;;;;;;;5075262;28;20375;-81
2024/01/18 09:24:29;;;;;;;0.30;0.28;;;;;;;;;;5055291;28;20487;-82
2024/01/18 09:26:55;;;;;;;0.40;0.30;;;;;;;;;;5054582;28;20479;-82
2024/01/18 09:29:21;;;;;;;0.50;0.30;;;;;;;;;;5072568;28;20386;-82
2024/01/18 09:31:47;;;;;;;0.32;0.20;;;;;;;;;;5054200;28;20579;-82
2024/01/18 09:34:13;;;;;;;0.20;0.20;;;;;;;;;;5072445;28;20384;-82
2024/01/18 09:36:39;;;;;;;0.67;0.30;;;;;;;;;;5072550;28;20486;-82
2024/01/18 09:39:15;;;;;;;0.40;0.25;;;;;;;;;;5072250;28;20422;-81
2024/01/18 09:41:42;;;;;;;0.63;0.30;;;;;;;;;;5071722;28;20458;-82
2024/01/18 09:44:10;;;;;;;0.22;0.22;;;;;;;;;;5072497;28;20380;-82
2024/01/18 09:46:38;;;;;;;0.60;0.60;;;;;;;;;;5072357;28;20414;-82
2024/01/18 09:49:07;;;;;;;0.70;0.40;;;;;;;;;;5062024;28;20435;-82
2024/01/18 09:51:33;;;;;;;0.63;0.50;;;;;;;;;;5052570;28;20447;-82
2024/01/18 09:54:00;;;;;;;0.30;0.30;;;;;;;;;;5052877;28;20442;-82
2024/01/18 09:56:29;;;;;;;0.40;0.40;;;;;;;;;;5052794;28;20420;-82
2024/01/18 09:58:55;;;;;;;0.40;0.40;;;;;;;;;;5053046;28;20435;-81
2024/01/18 10:01:23;;;;;;;0.30;0.30;;;;;;;;;;5052789;28;20380;-82
2024/01/18 10:03:49;;;;;;;0.40;0.30;;;;;;;;;;5052329;28;20388;-82
2024/01/18 10:06:17;;;;;;;0.30;0.30;;;;;;;;;;5052194;28;20369;-81
2024/01/18 10:08:43;;;;;;;0.60;0.30;;;;;;;;;;5052110;28;21021;-81
2024/01/18 10:11:09;;;;;;;0.50;0.20;;;;;;;;;;5052037;28;20455;-81
2024/01/18 10:13:51;;;;;;;0.60;0.30;;;;;;;;;;5052593;28;20385;-81
2024/01/18 10:16:30;;;;;;;0.40;0.30;;;;;;;;;;5052351;28;20384;-82
2024/01/18 10:18:57;;;;;;;0.32;0.32;;;;;;;;;;5052253;28;20432;-81
2024/01/18 10:21:23;;;;;;;0.30;0.30;;;;;;;;;;5052578;28;20388;-81
2024/01/18 10:23:50;;;;;;;0.90;0.40;;;;;;;;;;5066270;28;20449;-81
2024/01/18 10:26:17;;;;;;;0.38;0.30;;;;;;;;;;5067874;28;20381;-81
2024/01/18 10:28:43;;;;;;;0.30;0.30;;;;;;;;;;5052627;28;20424;-81
2024/01/18 10:31:09;;;;;;;0.30;0.30;;;;;;;;;;5051940;28;20381;-81
2024/01/18 10:33:35;;;;;;;0.60;0.30;;;;;;;;;;5052346;28;20436;-83
2024/01/18 10:36:01;;;;;;;0.90;0.40;;;;;;;;;;5034056;28;20401;-81
2024/01/18 10:38:32;;;;;;;0.30;0.30;;;;;;;;;;5035190;28;20396;-81
2024/01/18 10:40:59;;;;;;;0.53;0.40;;;;;;;;;;5052760;28;20451;-81
2024/01/18 10:43:28;;;;;;;0.40;0.20;;;;;;;;;;5052511;28;20766;-82
2024/01/18 10:45:55;;;;;;;0.73;0.40;;;;;;;;;;5035028;28;20468;-81
2024/01/18 10:48:22;;;;;;;0.40;0.40;;;;;;;;;;5052648;28;20380;-81
2024/01/18 10:50:51;;;;;;;2.20;0.55;;;;;;;;;;5052359;28;20404;-81
2024/01/18 10:53:17;;;;;;;1.40;0.50;;;;;;;;;;5054109;28;20413;-81
2024/01/18 10:55:43;;;;;;;0.80;0.50;;;;;;;;;;5056372;28;20416;-81
2024/01/18 10:58:09;;;;;;;0.70;0.40;;;;;;;;;;5056683;28;20389;-81
2024/01/18 11:00:35;;;;;;;1.20;0.28;;;;;;;;;;5037733;28;20500;-82
2024/01/18 11:03:01;;;;;;;0.40;0.30;;;;;;;;;;5055841;28;20452;-81
2024/01/18 11:05:27;;;;;;;1.00;0.50;;;;;;;;;;5056568;28;20381;-82
2024/01/18 11:07:53;;;;;;;0.63;0.30;;;;;;;;;;5055711;28;20377;-82
2024/01/18 11:10:20;;;;;;;0.70;0.40;;;;;;;;;;5039319;28;20389;-82
2024/01/18 11:12:49;;;;;;;0.30;0.30;;;;;;;;;;5057246;28;20472;-82
2024/01/18 11:15:16;;;;;;;0.30;0.30;;;;;;;;;;5055914;28;20905;-82
2024/01/18 11:17:51;;;;;;;1.20;0.30;;;;;;;;;;5055775;28;20385;-81
2024/01/18 11:20:18;;;;;;;0.30;0.30;;;;;;;;;;5056213;28;20405;-81
2024/01/18 11:22:45;;;;;;;0.80;0.50;;;;;;;;;;5056543;28;20394;-82
2024/01/18 11:25:11;;;;;;;0.43;0.30;;;;;;;;;;5056334;28;20401;-81
2024/01/18 11:27:38;;;;;;;0.52;0.40;;;;;;;;;;5055744;28;20442;-82
2024/01/18 11:30:07;;;;;;;0.50;0.40;;;;;;;;;;5055643;28;20451;-82
2024/01/18 11:32:33;;;;;;;0.50;0.43;;;;;;;;;;5055125;28;20809;-82
2024/01/18 11:35:12;;;;;;;0.40;0.35;;;;;;;;;;5056230;28;20381;-81
2024/01/18 11:37:38;;;;;;;0.30;0.30;;;;;;;;;;5056987;28;20381;-81
2024/01/18 11:40:12;;;;;;;0.90;0.50;;;;;;;;;;5055890;28;20462;-81
2024/01/18 11:42:40;;;;;;;0.52;0.35;;;;;;;;;;5055631;28;20385;-81
2024/01/18 11:45:19;;;;;;;0.30;0.30;;;;;;;;;;5055965;28;20409;-82
2024/01/18 11:47:46;;;;;;;0.70;0.40;;;;;;;;;;5055518;28;20393;-81
2024/01/18 11:50:12;;;;;;;0.50;0.50;;;;;;;;;;5055447;28;20570;-82
2024/01/18 11:52:42;;;;;;;0.52;0.40;;;;;;;;;;5055540;28;20378;-81
2024/01/18 11:55:10;;;;;;;0.90;0.80;;;;;;;;;;5055558;28;20385;-81
2024/01/18 11:57:36;;;;;;;1.60;1.00;;;;;;;;;;5054872;28;20393;-81
2024/01/18 12:00:03;;;;;;;0.70;0.50;;;;;;;;;;5037115;28;20455;-82
2024/01/18 12:02:29;;;;;;;0.50;0.50;;;;;;;;;;5056263;28;20399;-81
2024/01/18 12:04:56;;;;;;;0.60;0.60;;;;;;;;;;5054955;28;20708;-81
2024/01/18 12:07:23;;;;;;;0.98;0.88;;;;;;;;;;5056641;28;20374;-82
2024/01/18 12:09:48;;;;;;;0.70;0.40;;;;;;;;;;5056645;28;20863;-84
2024/01/18 12:12:15;;;;;;;1.08;0.40;;;;;;;;;;5037258;28;20389;-83
2024/01/18 12:14:43;;;;;;;0.45;0.45;;;;;;;;;;5056160;28;20743;-83
2024/01/18 12:17:10;;;;;;;0.70;0.50;;;;;;;;;;5056373;28;21209;-83
2024/01/18 12:19:40;;;;;;;0.90;0.57;;;;;;;;;;5057066;28;20413;-83
2024/01/18 12:22:06;;;;;;;0.50;0.38;;;;;;;;;;5074115;28;20425;-83
2024/01/18 12:24:32;;;;;;;0.90;0.40;;;;;;;;;;5061094;28;20865;-82
2024/01/18 12:26:58;;;;;;;0.73;0.50;;;;;;;;;;5054768;28;20381;-83
2024/01/18 12:29:25;;;;;;;0.70;0.50;;;;;;;;;;5056056;28;20400;-83
2024/01/18 12:31:51;;;;;;;0.57;0.50;;;;;;;;;;5055557;28;20384;-83
2024/01/18 12:34:20;;;;;;;0.50;0.50;;;;;;;;;;5055153;28;20456;-83
2024/01/18 12:36:47;;;;;;;0.70;0.40;;;;;;;;;;5054678;28;20379;-83
2024/01/18 12:39:13;;;;;;;1.13;0.50;;;;;;;;;;5054613;28;20439;-83
2024/01/18 12:41:40;;;;;;;0.75;0.47;;;;;;;;;;5055003;28;20409;-83
2024/01/18 12:44:06;;;;;;;0.50;0.43;;;;;;;;;;5053693;28;20440;-83
2024/01/18 12:46:32;;;;;;;0.40;0.40;;;;;;;;;;5052735;28;20385;-83
2024/01/18 12:48:58;;;;;;;0.38;0.30;;;;;;;;;;5034961;28;20413;-83
2024/01/18 12:51:25;;;;;;;0.75;0.50;;;;;;;;;;5052800;28;20416;-82
2024/01/18 12:53:51;;;;;;;0.65;0.40;;;;;;;;;;5052707;28;20389;-82
2024/01/18 12:56:17;;;;;;;1.05;0.40;;;;;;;;;;5052499;28;20378;-83
2024/01/18 12:58:43;;;;;;;0.68;0.43;;;;;;;;;;5052598;28;20401;-83
2024/01/18 13:01:09;;;;;;;0.60;0.38;;;;;;;;;;5053114;28;20412;-83
2024/01/18 13:03:35;;;;;;;0.70;0.47;;;;;;;;;;5052649;28;20467;-83
2024/01/18 13:06:02;;;;;;;0.63;0.57;;;;;;;;;;5035137;28;20393;-83
2024/01/18 13:08:28;;;;;;;1.08;0.80;;;;;;;;;;5052773;28;20386;-83
2024/01/18 13:10:54;;;;;;;1.42;0.77;;;;;;;;;;5052667;28;20468;-83
2024/01/18 13:13:20;;;;;;;0.77;0.40;;;;;;;;;;5052983;28;20697;-83
2024/01/18 13:15:46;;;;;;;0.65;0.40;;;;;;;;;;5052130;28;20863;-83
2024/01/18 13:18:12;;;;;;;0.98;0.35;;;;;;;;;;5051795;28;20388;-83
2024/01/18 13:20:39;;;;;;;0.40;0.30;;;;;;;;;;5052159;28;20401;-83
2024/01/18 13:23:05;;;;;;;0.47;0.30;;;;;;;;;;5052599;28;20380;-83
2024/01/18 13:25:31;;;;;;;0.60;0.40;;;;;;;;;;5034333;28;20872;-83
2024/01/18 13:27:57;;;;;;;0.70;0.40;;;;;;;;;;5052608;28;20378;-83
2024/01/18 13:30:23;;;;;;;0.50;0.33;;;;;;;;;;5035700;28;20927;-81
2024/01/18 13:32:50;;;;;;;0.77;0.45;;;;;;;;;;5053148;28;20389;-81
2024/01/18 13:35:16;;;;;;;1.03;0.80;;;;;;;;;;5052460;28;20392;-80
2024/01/18 13:37:42;;;;;;;2.42;0.80;;;;;;;;;;5053028;28;20385;-81
2024/01/18 13:40:08;;;;;;;2.50;0.88;;;;;;;;;;5052408;28;20874;-81
2024/01/18 13:42:35;;;;;;;0.88;0.47;;;;;;;;;;5052945;28;20431;-81
2024/01/18 13:45:01;;;;;;;0.63;0.60;;;;;;;;;;5052542;28;20378;-81
2024/01/18 13:47:27;;;;;;;0.35;0.35;;;;;;;;;;5052491;28;20395;-81
2024/01/18 13:49:53;;;;;;;0.50;0.30;;;;;;;;;;5051960;28;20843;-81
2024/01/18 13:52:20;;;;;;;0.40;0.40;;;;;;;;;;5052036;28;20432;-82
2024/01/18 13:54:46;;;;;;;0.80;0.60;;;;;;;;;;5052483;28;20474;-82
2024/01/18 13:57:13;;;;;;;1.10;0.80;;;;;;;;;;5051925;28;20405;-81
2024/01/18 13:59:39;;;;;;;1.27;0.60;;;;;;;;;;5034221;28;20405;-81
2024/01/18 14:02:05;;;;;;;1.67;0.50;;;;;;;;;;5052400;28;20381;-81
2024/01/18 14:04:31;;;;;;;0.63;0.50;;;;;;;;;;5053660;28;20464;-81
2024/01/18 14:06:57;;;;;;;0.90;0.30;;;;;;;;;;5053039;28;20775;-81
2024/01/18 14:09:24;;;;;;;1.10;0.40;;;;;;;;;;5052500;28;20390;-81
2024/01/18 14:11:50;;;;;;;0.70;0.32;;;;;;;;;;5052418;28;20377;-81
2024/01/18 14:14:16;;;;;;;0.30;0.25;;;;;;;;;;5052384;28;20392;-81
2024/01/18 14:16:42;;;;;;;0.90;0.40;;;;;;;;;;5053295;28;20410;-81
2024/01/18 14:19:09;;;;;;;0.35;0.20;;;;;;;;;;5051760;28;20448;-81
2024/01/18 14:21:35;;;;;;;1.10;0.40;;;;;;;;;;5053978;28;20408;-81
2024/01/18 14:24:01;;;;;;;0.43;0.20;;;;;;;;;;5052944;28;20408;-81
2024/01/18 14:26:27;;;;;;;0.35;0.30;;;;;;;;;;5052323;28;20377;-81
2024/01/18 14:28:53;;;;;;;0.93;0.40;;;;;;;;;;5055499;28;20448;-81
2024/01/18 14:31:19;;;;;;;0.73;0.38;;;;;;;;;;5057550;28;20415;-81
2024/01/18 14:33:45;;;;;;;0.80;0.50;;;;;;;;;;5056157;28;20384;-81
2024/01/18 14:36:11;;;;;;;1.20;0.70;;;;;;;;;;5057090;28;20388;-82
2024/01/18 14:38:37;;;;;;;2.00;0.60;;;;;;;;;;5056658;28;20374;-81